createdAt,value
2023-07-11T00:01:14.514Z,24.90
2023-07-11T00:03:42.243Z,24.90
2023-07-11T00:06:15.214Z,24.80
2023-07-11T00:08:44.696Z,24.80
2023-07-11T00:11:12.832Z,24.80
2023-07-11T00:13:41.047Z,24.70
2023-07-11T00:16:11.751Z,24.70
2023-07-11T00:18:38.876Z,24.70
2023-07-11T00:21:06.228Z,24.70
2023-07-11T00:23:33.375Z,24.60
2023-07-11T00:26:00.623Z,24.60
2023-07-11T00:28:27.975Z,24.60
2023-07-11T00:30:56.118Z,24.60
2023-07-11T00:33:23.257Z,24.50
2023-07-11T00:35:53.673Z,24.50
2023-07-11T00:38:21.568Z,24.50
2023-07-11T00:40:51.276Z,24.50
2023-07-11T00:43:21.200Z,24.50
2023-07-11T00:45:51.272Z,24.40
2023-07-11T00:48:22.553Z,24.30
2023-07-11T00:50:51.366Z,24.30
2023-07-11T00:53:19.452Z,24.30
2023-07-11T00:55:47.145Z,24.20
2023-07-11T00:58:17.352Z,24.20
2023-07-11T01:00:44.613Z,24.20
2023-07-11T01:03:12.035Z,24.20
2023-07-11T01:05:40.706Z,24.20
2023-07-11T01:08:10.617Z,24.20
2023-07-11T01:10:37.939Z,24.10
2023-07-11T01:13:06.467Z,24.20
2023-07-11T01:15:33.572Z,24.10
2023-07-11T01:18:00.701Z,24.10
2023-07-11T01:20:27.855Z,24.10
2023-07-11T01:22:57.065Z,24.10
2023-07-11T01:25:24.547Z,24.10
2023-07-11T01:27:52.959Z,24.00
2023-07-11T01:30:22.576Z,24.00
2023-07-11T01:32:50.008Z,24.00
2023-07-11T01:35:18.797Z,23.90
2023-07-11T01:37:46.029Z,23.90
2023-07-11T01:40:14.060Z,23.90
2023-07-11T01:42:42.495Z,23.90
2023-07-11T01:45:11.270Z,23.90
2023-07-11T01:47:38.749Z,23.90
2023-07-11T01:50:06.376Z,23.80
2023-07-11T01:52:33.530Z,23.80
2023-07-11T01:55:00.742Z,23.80
2023-07-11T01:57:28.031Z,23.80
2023-07-11T01:59:55.342Z,23.70
2023-07-11T02:02:22.478Z,23.70
2023-07-11T02:04:49.657Z,23.70
2023-07-11T02:07:16.680Z,23.70
2023-07-11T02:09:47.271Z,23.60
2023-07-11T02:12:15.315Z,23.60
2023-07-11T02:14:42.841Z,23.60
2023-07-11T02:17:10.405Z,23.60
2023-07-11T02:19:38.130Z,23.60
2023-07-11T02:22:05.347Z,23.50
2023-07-11T02:24:32.655Z,23.50
2023-07-11T02:26:59.773Z,23.50
2023-07-11T02:29:26.828Z,23.50
2023-07-11T02:31:53.924Z,23.50
2023-07-11T02:34:21.001Z,23.40
2023-07-11T02:36:48.051Z,23.40
2023-07-11T02:39:15.179Z,23.40
2023-07-11T02:41:42.440Z,23.30
2023-07-11T02:44:10.209Z,23.30
2023-07-11T02:46:37.809Z,23.30
2023-07-11T02:49:09.754Z,23.30
2023-07-11T02:51:40.005Z,23.30
2023-07-11T02:54:09.752Z,23.30
2023-07-11T02:56:36.659Z,23.20
2023-07-11T02:59:04.486Z,23.20
2023-07-11T03:01:33.206Z,23.20
2023-07-11T03:04:00.426Z,23.20
2023-07-11T03:06:27.457Z,23.20
2023-07-11T03:08:54.504Z,23.10
2023-07-11T03:11:21.521Z,23.10
2023-07-11T03:13:48.755Z,23.10
2023-07-11T03:16:15.877Z,23.10
2023-07-11T03:18:42.843Z,23.00
2023-07-11T03:21:09.851Z,23.00
2023-07-11T03:23:36.935Z,23.00
2023-07-11T03:26:04.206Z,22.90
2023-07-11T03:28:31.419Z,22.90
2023-07-11T03:30:58.444Z,22.90
2023-07-11T03:33:25.602Z,22.90
2023-07-11T03:35:53.831Z,22.80
2023-07-11T03:38:21.094Z,22.80
2023-07-11T03:40:48.121Z,22.80
2023-07-11T03:43:15.360Z,22.80
2023-07-11T03:45:46.427Z,22.70
2023-07-11T03:48:15.348Z,22.70
2023-07-11T03:50:43.719Z,22.70
2023-07-11T03:53:11.948Z,22.70
2023-07-11T03:55:39.181Z,22.70
2023-07-11T03:58:06.525Z,22.60
2023-07-11T04:00:33.566Z,22.70
2023-07-11T04:03:00.867Z,22.70
2023-07-11T04:05:28.136Z,22.70
2023-07-11T04:07:55.481Z,22.70
2023-07-11T04:10:22.614Z,22.70
2023-07-11T04:12:50.304Z,22.70
2023-07-11T04:15:17.486Z,22.70
2023-07-11T04:17:44.985Z,22.70
2023-07-11T04:20:12.729Z,22.80
2023-07-11T04:22:39.909Z,22.80
2023-07-11T04:25:07.348Z,22.80
2023-07-11T04:27:34.434Z,22.80
2023-07-11T04:30:01.434Z,22.80
2023-07-11T04:32:29.583Z,22.80
2023-07-11T04:34:59.103Z,22.80
2023-07-11T04:37:26.135Z,22.80
2023-07-11T04:39:53.170Z,22.80
2023-07-11T04:42:20.272Z,22.80
2023-07-11T04:44:47.304Z,22.80
2023-07-11T04:47:14.546Z,22.80
2023-07-11T04:49:41.537Z,22.80
2023-07-11T04:52:08.707Z,22.80
2023-07-11T04:54:36.828Z,22.80
2023-07-11T04:57:05.586Z,22.90
2023-07-11T04:59:32.933Z,22.90
2023-07-11T05:02:00.082Z,23.00
2023-07-11T05:04:27.495Z,23.00
2023-07-11T05:07:07.821Z,22.90
2023-07-11T05:09:40.956Z,23.00
2023-07-11T05:12:17.430Z,23.00
2023-07-11T05:14:44.478Z,23.00
2023-07-11T05:17:11.708Z,23.10
2023-07-11T05:19:38.760Z,23.20
2023-07-11T05:22:05.814Z,23.20
2023-07-11T05:24:32.879Z,23.30
2023-07-11T05:26:59.868Z,23.30
2023-07-11T05:29:28.127Z,23.50
2023-07-11T05:31:55.371Z,23.50
2023-07-11T05:34:22.403Z,23.60
2023-07-11T05:36:49.524Z,23.60
2023-07-11T05:39:17.357Z,23.70
2023-07-11T05:41:50.465Z,23.80
2023-07-11T05:44:17.715Z,23.90
2023-07-11T05:46:48.039Z,24.00
2023-07-11T05:49:15.823Z,24.10
2023-07-11T05:51:42.893Z,24.30
2023-07-11T05:54:10.291Z,24.30
2023-07-11T05:56:37.392Z,24.50
2023-07-11T05:59:04.437Z,24.70
2023-07-11T06:01:33.158Z,24.90
2023-07-11T06:04:13.263Z,25.10
2023-07-11T06:06:44.946Z,25.30
2023-07-11T06:09:20.941Z,25.60
2023-07-11T06:11:49.873Z,25.70
2023-07-11T06:14:18.786Z,25.90
2023-07-11T06:16:49.300Z,26.00
2023-07-11T06:19:17.727Z,26.10
2023-07-11T06:21:46.078Z,26.10
2023-07-11T06:24:14.080Z,26.10
2023-07-11T06:26:41.221Z,26.10
2023-07-11T06:29:08.377Z,26.10
2023-07-11T06:31:35.504Z,26.00
2023-07-11T06:34:02.619Z,25.90
2023-07-11T06:36:29.773Z,25.80
2023-07-11T06:38:58.849Z,25.80
2023-07-11T06:41:25.910Z,25.70
2023-07-11T06:43:54.310Z,25.70
2023-07-11T06:46:21.374Z,25.80
2023-07-11T06:48:48.716Z,25.90
2023-07-11T06:51:15.706Z,26.00
2023-07-11T06:53:42.853Z,26.20
2023-07-11T06:56:10.562Z,26.40
2023-07-11T06:58:37.748Z,26.60
2023-07-11T07:01:34.791Z,26.80
2023-07-11T07:04:06.686Z,27.00
2023-07-11T07:06:34.166Z,27.00
2023-07-11T07:09:01.754Z,27.10
2023-07-11T07:11:29.114Z,27.20
2023-07-11T07:14:05.381Z,27.30
2023-07-11T07:16:36.393Z,27.40
2023-07-11T07:19:04.792Z,27.50
2023-07-11T07:21:32.201Z,27.70
2023-07-11T07:23:59.849Z,27.70
2023-07-11T07:26:27.122Z,27.80
2023-07-11T07:28:54.271Z,28.00
2023-07-11T07:31:21.415Z,28.20
2023-07-11T07:33:48.416Z,28.30
2023-07-11T07:36:15.702Z,28.50
2023-07-11T07:38:52.988Z,28.60
2023-07-11T07:41:21.908Z,28.80
2023-07-11T07:43:48.917Z,29.00
2023-07-11T07:46:19.139Z,29.20
2023-07-11T07:48:46.779Z,29.50
2023-07-11T07:51:17.023Z,29.70
2023-07-11T07:53:45.722Z,30.10
2023-07-11T07:56:19.602Z,30.30
2023-07-11T07:58:48.187Z,30.70
2023-07-11T08:01:17.621Z,31.00
2023-07-11T08:03:45.601Z,31.40
2023-07-11T08:06:16.766Z,31.60
2023-07-11T08:08:46.274Z,31.80
2023-07-11T08:11:14.005Z,32.10
2023-07-11T08:13:58.482Z,32.40
2023-07-11T08:16:33.999Z,32.60
2023-07-11T08:19:06.963Z,32.90
2023-07-11T08:21:36.772Z,33.20
2023-07-11T08:24:06.444Z,33.50
2023-07-11T08:26:33.758Z,33.70
2023-07-11T08:29:05.323Z,33.90
2023-07-11T08:31:37.042Z,34.00
2023-07-11T08:34:04.154Z,34.20
2023-07-11T08:36:31.451Z,34.50
2023-07-11T08:38:58.556Z,34.60
2023-07-11T08:41:46.851Z,34.80
2023-07-11T08:44:18.468Z,35.10
2023-07-11T08:47:02.060Z,35.30
2023-07-11T08:49:41.180Z,35.60
2023-07-11T08:52:10.856Z,35.80
2023-07-11T08:54:55.626Z,36.10
2023-07-11T08:57:24.818Z,36.20
2023-07-11T09:00:16.553Z,36.40
2023-07-11T09:03:02.171Z,36.80
2023-07-11T09:05:55.524Z,37.20
2023-07-11T09:08:23.064Z,37.50
2023-07-11T09:11:06.001Z,37.80
2023-07-11T09:13:51.320Z,38.00
2023-07-11T09:16:38.401Z,38.30
2023-07-11T09:19:24.367Z,38.60
2023-07-11T09:22:33.140Z,38.90
2023-07-11T09:25:11.941Z,39.10
2023-07-11T09:28:07.750Z,39.30
2023-07-11T09:30:46.934Z,39.70
2023-07-11T09:33:17.684Z,40.00
2023-07-11T09:35:46.557Z,40.30
2023-07-11T09:38:41.976Z,40.60
2023-07-11T09:41:18.534Z,40.90
2023-07-11T09:43:45.746Z,41.10
2023-07-11T09:46:14.862Z,41.20
2023-07-11T09:48:46.029Z,41.10
2023-07-11T09:51:26.144Z,41.30
2023-07-11T09:53:59.747Z,41.50
2023-07-11T09:56:27.310Z,41.90
2023-07-11T09:58:59.867Z,42.30
2023-07-11T10:01:33.018Z,42.70
2023-07-11T10:04:01.662Z,42.50
2023-07-11T10:09:15.440Z,42.50
2023-07-11T10:11:42.390Z,42.70
2023-07-11T10:14:20.428Z,43.20
2023-07-11T10:16:48.942Z,43.80
2023-07-11T10:19:17.987Z,44.30
2023-07-11T10:21:49.498Z,44.70
2023-07-11T10:24:22.674Z,45.00
2023-07-11T10:26:56.331Z,45.20
2023-07-11T10:29:26.847Z,45.20
2023-07-11T10:31:55.942Z,45.40
2023-07-11T10:34:30.868Z,45.60
2023-07-11T10:37:06.566Z,45.90
2023-07-11T10:39:57.830Z,46.30
2023-07-11T10:42:43.462Z,46.70
2023-07-11T10:45:20.932Z,47.00
2023-07-11T10:48:06.820Z,47.30
2023-07-11T10:50:44.364Z,47.50
2023-07-11T10:53:27.052Z,48.00
2023-07-11T10:56:08.931Z,48.40
2023-07-11T10:58:36.140Z,48.80
2023-07-11T11:01:30.989Z,49.10
2023-07-11T11:04:23.326Z,49.30
2023-07-11T11:06:59.639Z,49.20
2023-07-11T11:09:52.103Z,49.30
2023-07-11T11:12:35.443Z,49.70
2023-07-11T11:15:14.642Z,49.90
2023-07-11T11:18:12.568Z,49.50
2023-07-11T11:21:19.620Z,48.90
2023-07-11T11:24:02.558Z,49.10
2023-07-11T11:27:01.821Z,49.30
2023-07-11T11:29:34.693Z,49.70
2023-07-11T11:32:10.887Z,49.80
2023-07-11T11:34:55.869Z,49.60
2023-07-11T11:37:52.892Z,49.80
2023-07-11T11:40:26.941Z,50.30
2023-07-11T11:43:01.844Z,50.50
2023-07-11T11:46:26.150Z,50.80
2023-07-11T11:51:12.862Z,50.80
2023-07-11T11:53:48.058Z,50.80
2023-07-11T11:56:24.918Z,50.80
2023-07-11T11:59:06.881Z,51.10
2023-07-11T12:01:55.083Z,51.40
2023-07-11T12:04:31.670Z,51.50
2023-07-11T12:07:06.686Z,51.50
2023-07-11T12:09:48.286Z,51.50
2023-07-11T12:12:18.229Z,51.80
2023-07-11T12:15:01.604Z,52.00
2023-07-11T12:17:34.916Z,52.00
2023-07-11T12:20:02.308Z,52.10
2023-07-11T12:22:39.821Z,52.40
2023-07-11T12:25:06.876Z,52.40
2023-07-11T12:27:36.630Z,52.20
2023-07-11T12:30:24.920Z,52.30
2023-07-11T12:32:52.820Z,52.30
2023-07-11T12:35:23.079Z,52.00
2023-07-11T12:38:02.656Z,51.90
2023-07-11T12:40:48.067Z,52.10
2023-07-11T12:43:20.471Z,52.40
2023-07-11T12:45:55.876Z,52.40
2023-07-11T12:48:32.452Z,52.20
2023-07-11T12:51:06.158Z,52.10
2023-07-11T12:53:38.588Z,52.10
2023-07-11T12:56:14.003Z,52.00
2023-07-11T12:58:41.750Z,52.10
2023-07-11T13:01:14.829Z,52.30
2023-07-11T13:03:43.068Z,52.50
2023-07-11T13:06:25.268Z,52.40
2023-07-11T13:08:53.192Z,52.50
2023-07-11T13:11:28.841Z,52.90
2023-07-11T13:13:57.562Z,53.10
2023-07-11T13:16:31.610Z,53.40
2023-07-11T13:19:00.129Z,53.50
2023-07-11T13:21:28.045Z,53.30
2023-07-11T13:23:57.376Z,53.10
2023-07-11T13:26:30.985Z,53.10
2023-07-11T13:29:10.277Z,53.20
2023-07-11T13:31:39.616Z,53.30
2023-07-11T13:34:13.248Z,53.10
2023-07-11T13:36:46.072Z,53.00
2023-07-11T13:39:22.061Z,53.10
2023-07-11T13:41:53.832Z,53.30
2023-07-11T13:44:44.516Z,53.70
2023-07-11T13:47:25.256Z,53.70
2023-07-11T13:50:17.257Z,53.40
2023-07-11T13:52:56.134Z,53.30
2023-07-11T13:55:33.831Z,53.40
2023-07-11T13:58:02.122Z,53.70
2023-07-11T14:00:29.467Z,54.00
2023-07-11T14:02:56.651Z,53.90
2023-07-11T14:05:29.881Z,53.70
2023-07-11T14:07:59.325Z,53.00
2023-07-11T14:10:30.214Z,52.80
2023-07-11T14:12:58.984Z,52.70
2023-07-11T14:15:29.457Z,52.50
2023-07-11T14:17:59.887Z,52.50
2023-07-11T14:20:29.010Z,52.50
2023-07-11T14:22:56.147Z,52.20
2023-07-11T14:25:26.031Z,51.90
2023-07-11T14:27:54.309Z,52.10
2023-07-11T14:30:21.452Z,52.30
2023-07-11T14:32:49.669Z,52.50
2023-07-11T14:35:25.720Z,52.50
2023-07-11T14:37:53.125Z,52.50
2023-07-11T14:40:25.648Z,52.40
2023-07-11T14:42:53.045Z,52.40
2023-07-11T14:45:23.645Z,52.60
2023-07-11T14:47:53.398Z,52.50
2023-07-11T14:50:27.641Z,52.50
2023-07-11T14:52:55.507Z,52.50
2023-07-11T14:57:59.193Z,52.70
2023-07-11T15:00:29.124Z,52.60
2023-07-11T15:02:56.687Z,52.60
2023-07-11T15:10:30.699Z,52.10
2023-07-11T15:15:33.190Z,51.60
2023-07-11T15:18:00.429Z,51.30
2023-07-11T15:20:27.870Z,51.00
2023-07-11T15:22:57.487Z,50.70
2023-07-11T15:25:27.787Z,50.00
2023-07-11T15:27:55.315Z,49.20
2023-07-11T15:30:54.469Z,48.30
2023-07-11T15:33:37.704Z,47.20
2023-07-11T15:36:06.556Z,46.20
2023-07-11T15:38:36.652Z,45.40
2023-07-11T15:41:15.845Z,44.80
2023-07-11T15:43:44.595Z,44.30
2023-07-11T15:46:17.661Z,43.80
2023-07-11T15:48:47.968Z,43.50
2023-07-11T15:51:17.496Z,42.90
2023-07-11T15:53:44.585Z,42.40
2023-07-11T15:56:14.987Z,42.00
2023-07-11T15:58:42.146Z,41.70
2023-07-11T16:04:27.932Z,41.30
2023-07-11T16:07:06.810Z,41.20
2023-07-11T16:09:49.946Z,41.00
2023-07-11T16:12:31.169Z,40.90
2023-07-11T16:15:03.272Z,40.70
2023-07-11T16:18:07.759Z,40.70
2023-07-11T16:20:43.945Z,40.50
2023-07-11T16:23:20.650Z,40.20
2023-07-11T16:25:54.472Z,40.00
2023-07-11T16:28:34.774Z,39.80
2023-07-11T16:31:18.635Z,39.70
2023-07-11T16:33:57.290Z,39.70
2023-07-11T16:36:32.916Z,39.50
2023-07-11T16:39:38.483Z,39.50
2023-07-11T16:42:38.508Z,39.40
2023-07-11T16:45:18.178Z,39.30
2023-07-11T16:48:10.730Z,39.20
2023-07-11T16:50:44.138Z,39.10
2023-07-11T16:53:19.953Z,39.00
2023-07-11T16:55:47.865Z,38.90
2023-07-11T16:58:20.242Z,38.80
2023-07-11T17:00:48.995Z,38.70
2023-07-11T17:03:16.472Z,38.60
2023-07-11T17:05:45.829Z,38.50
2023-07-11T17:08:19.823Z,38.40
2023-07-11T17:10:53.462Z,38.40
2023-07-11T17:13:34.253Z,38.30
2023-07-11T17:16:05.194Z,38.30
2023-07-11T17:18:32.807Z,38.00
2023-07-11T17:21:00.418Z,37.70
2023-07-11T17:23:27.649Z,37.70
2023-07-11T17:26:00.441Z,37.50
2023-07-11T17:28:31.014Z,37.40
2023-07-11T17:30:58.498Z,37.10
2023-07-11T17:33:29.189Z,36.90
2023-07-11T17:35:58.541Z,36.70
2023-07-11T17:38:29.074Z,36.40
2023-07-11T17:40:56.134Z,36.10
2023-07-11T17:43:27.620Z,35.80
2023-07-11T17:46:17.533Z,35.50
2023-07-11T17:48:44.046Z,35.20
2023-07-11T17:51:13.166Z,34.90
2023-07-11T17:53:41.758Z,34.80
2023-07-11T17:56:15.494Z,34.70
2023-07-11T17:58:43.797Z,34.60
2023-07-11T18:01:19.138Z,34.60
2023-07-11T18:03:47.946Z,34.60
2023-07-11T18:06:22.214Z,34.60
2023-07-11T18:08:49.430Z,34.60
2023-07-11T18:11:17.036Z,34.60
2023-07-11T18:13:45.258Z,34.50
2023-07-11T18:16:21.117Z,34.50
2023-07-11T18:18:48.446Z,34.40
2023-07-11T18:21:15.798Z,34.30
2023-07-11T18:23:42.896Z,34.30
2023-07-11T18:26:18.302Z,34.10
2023-07-11T18:28:46.693Z,34.00
2023-07-11T18:31:21.836Z,33.90
2023-07-11T18:33:50.521Z,33.80
2023-07-11T18:36:27.638Z,33.80
2023-07-11T18:39:02.575Z,33.70
2023-07-11T18:41:31.365Z,33.60
2023-07-11T18:44:15.146Z,33.60
2023-07-11T18:46:47.873Z,33.60
2023-07-11T18:49:24.897Z,33.50
2023-07-11T18:52:13.552Z,33.40
2023-07-11T18:54:51.748Z,33.40
2023-07-11T20:00:59.132Z,22.30
2023-07-11T20:03:32.636Z,22.00
2023-07-11T20:06:30.834Z,21.90
2023-07-11T20:09:01.592Z,21.80
2023-07-11T20:11:37.601Z,21.70
2023-07-11T20:14:13.527Z,21.60
2023-07-11T20:16:48.953Z,21.40
2023-07-11T20:19:25.790Z,21.20
2023-07-11T20:21:58.460Z,21.10
2023-07-11T20:24:30.339Z,21.00
2023-07-11T20:27:07.449Z,21.00
2023-07-11T20:29:36.355Z,20.90
2023-07-11T20:32:06.880Z,20.90
2023-07-11T20:34:35.078Z,20.90
2023-07-11T20:37:02.635Z,20.90
2023-07-11T20:39:29.918Z,21.00
2023-07-11T20:41:56.887Z,21.00
2023-07-11T20:44:23.991Z,21.10
2023-07-11T20:46:51.132Z,21.20
2023-07-11T20:49:18.190Z,21.30
2023-07-11T20:51:45.175Z,21.30
2023-07-11T20:54:12.515Z,21.30
2023-07-11T20:56:39.994Z,21.30
2023-07-11T20:59:11.902Z,21.30
2023-07-11T21:01:40.765Z,21.20
2023-07-11T21:04:07.834Z,21.00
2023-07-11T21:06:40.056Z,20.80
2023-07-11T21:09:12.828Z,20.60
2023-07-11T21:11:43.250Z,20.50
2023-07-11T21:14:10.248Z,20.60
2023-07-11T21:16:37.363Z,20.60
2023-07-11T21:19:05.737Z,20.50
2023-07-11T21:21:36.931Z,20.50
2023-07-11T21:24:04.195Z,20.40
2023-07-11T21:26:33.196Z,20.40
2023-07-11T21:29:03.896Z,20.50
2023-07-11T21:31:31.478Z,20.70
2023-07-11T21:33:59.100Z,20.80
2023-07-11T21:36:26.160Z,20.90
2023-07-11T21:38:54.355Z,20.90
2023-07-11T21:41:23.693Z,21.00
2023-07-11T21:43:51.073Z,21.00
2023-07-11T21:46:26.195Z,20.80
2023-07-11T21:48:53.235Z,20.60
2023-07-11T21:51:21.810Z,20.50
2023-07-11T21:53:49.031Z,20.30
2023-07-11T21:56:27.414Z,20.20
2023-07-11T21:58:57.234Z,20.10
2023-07-11T22:01:43.056Z,20.00
2023-07-11T22:04:10.835Z,20.00
2023-07-11T22:06:39.925Z,19.90
2023-07-11T22:09:10.822Z,20.00
2023-07-11T22:11:54.540Z,20.10
2023-07-11T22:14:25.254Z,20.20
2023-07-11T22:17:06.768Z,20.40
2023-07-11T22:19:39.411Z,20.50
2023-07-11T22:22:06.912Z,20.70
2023-07-11T22:24:34.082Z,20.80
2023-07-11T22:27:01.118Z,20.90
2023-07-11T22:29:28.119Z,21.10
2023-07-11T22:32:03.238Z,21.10
2023-07-11T22:34:30.449Z,21.20
2023-07-11T22:36:57.457Z,21.20
2023-07-11T22:39:25.037Z,21.30
2023-07-11T22:41:52.266Z,21.30
2023-07-11T22:44:19.696Z,21.20
2023-07-11T22:46:47.229Z,21.10
2023-07-11T22:49:15.399Z,21.10
2023-07-11T22:51:42.502Z,21.10
2023-07-11T22:54:09.449Z,21.10
2023-07-11T22:56:39.357Z,21.20
2023-07-11T22:59:06.429Z,21.20
2023-07-11T23:01:33.881Z,21.10
2023-07-11T23:04:01.000Z,21.10
2023-07-11T23:06:31.560Z,21.20
2023-07-11T23:08:59.469Z,21.20
2023-07-11T23:11:27.028Z,21.30
2023-07-11T23:13:54.090Z,21.20
2023-07-11T23:16:28.780Z,21.00
2023-07-11T23:18:59.113Z,20.80
2023-07-11T23:21:26.411Z,20.80
2023-07-11T23:23:53.575Z,20.80
2023-07-11T23:26:20.771Z,20.80
2023-07-11T23:28:48.260Z,20.80
2023-07-11T23:31:15.751Z,20.80
2023-07-11T23:33:42.844Z,20.80
2023-07-11T23:36:18.835Z,20.80
2023-07-11T23:38:50.923Z,20.80
2023-07-11T23:41:18.459Z,20.70
2023-07-11T23:43:46.291Z,20.60
2023-07-11T23:46:21.067Z,20.50
2023-07-11T23:48:50.273Z,20.40
2023-07-11T23:51:18.640Z,20.40
2023-07-11T23:53:46.512Z,20.30
2023-07-11T23:56:22.306Z,20.40
2023-07-11T23:58:50.509Z,20.40
